createdAt,value
2023-01-23T00:00:47.681Z,16.33
2023-01-23T00:03:15.230Z,17.27
2023-01-23T00:05:42.714Z,14.87
2023-01-23T00:08:10.154Z,16.53
2023-01-23T00:10:40.128Z,14.87
2023-01-23T00:13:07.612Z,14.73
2023-01-23T00:15:35.159Z,16.87
2023-01-23T00:18:02.589Z,17.20
2023-01-23T00:20:30.032Z,15.47
2023-01-23T00:22:57.488Z,17.23
2023-01-23T00:25:24.952Z,18.23
2023-01-23T00:27:52.462Z,17.40
2023-01-23T00:30:20.104Z,16.87
2023-01-23T00:32:47.677Z,17.80
2023-01-23T00:35:17.374Z,17.40
2023-01-23T00:37:45.164Z,15.23
2023-01-23T00:40:13.377Z,17.10
2023-01-23T00:42:40.930Z,18.13
2023-01-23T00:45:08.855Z,17.03
2023-01-23T00:47:36.296Z,18.50
2023-01-23T00:50:03.764Z,18.13
2023-01-23T00:52:31.217Z,16.23
2023-01-23T00:54:58.656Z,16.03
2023-01-23T00:57:26.106Z,17.37
2023-01-23T00:59:53.591Z,18.77
2023-01-23T01:02:23.522Z,16.57
2023-01-23T01:04:51.000Z,16.13
2023-01-23T01:07:18.456Z,17.53
2023-01-23T01:09:47.974Z,19.87
2023-01-23T01:12:17.130Z,17.80
2023-01-23T01:14:44.644Z,17.80
2023-01-23T01:17:12.035Z,16.37
2023-01-23T01:19:39.464Z,15.97
2023-01-23T01:22:06.929Z,17.60
2023-01-23T01:24:34.462Z,17.03
2023-01-23T01:27:01.902Z,18.63
2023-01-23T01:29:29.376Z,17.37
2023-01-23T01:31:56.859Z,18.10
2023-01-23T01:34:24.396Z,18.37
2023-01-23T01:36:51.989Z,18.20
2023-01-23T01:39:19.899Z,18.70
2023-01-23T01:41:50.047Z,17.23
2023-01-23T01:44:18.998Z,20.37
2023-01-23T01:46:47.001Z,16.13
2023-01-23T01:49:26.340Z,20.87
2023-01-23T01:51:54.387Z,19.70
2023-01-23T01:54:23.265Z,17.97
2023-01-23T01:56:53.223Z,19.80
2023-01-23T01:59:22.505Z,16.83
2023-01-23T02:01:52.680Z,20.83
2023-01-23T02:04:20.402Z,18.17
2023-01-23T02:06:47.997Z,21.03
2023-01-23T02:09:16.062Z,17.93
2023-01-23T02:11:44.262Z,18.33
2023-01-23T02:14:12.452Z,18.20
2023-01-23T02:16:46.544Z,20.73
2023-01-23T02:19:23.925Z,19.80
2023-01-23T02:21:54.553Z,19.67
2023-01-23T02:24:34.974Z,18.73
2023-01-23T02:27:04.738Z,19.07
2023-01-23T02:29:43.447Z,19.03
2023-01-23T02:32:11.234Z,19.00
2023-01-23T02:34:38.960Z,19.20
2023-01-23T02:37:07.427Z,18.20
2023-01-23T02:39:35.057Z,17.77
2023-01-23T02:42:05.992Z,19.47
2023-01-23T02:44:45.595Z,20.43
2023-01-23T02:47:15.269Z,20.83
2023-01-23T02:49:42.998Z,18.97
2023-01-23T02:52:11.527Z,19.53
2023-01-23T02:54:40.798Z,18.90
2023-01-23T02:57:08.514Z,18.23
2023-01-23T02:59:54.740Z,18.90
2023-01-23T03:02:22.455Z,19.83
2023-01-23T03:04:49.985Z,18.40
2023-01-23T03:07:17.511Z,20.53
2023-01-23T03:09:47.948Z,20.23
2023-01-23T03:12:16.304Z,18.80
2023-01-23T03:14:43.774Z,18.53
2023-01-23T03:17:14.841Z,19.57
2023-01-23T03:19:42.786Z,19.30
2023-01-23T03:22:10.300Z,17.03
2023-01-23T03:24:39.799Z,18.53
2023-01-23T03:27:07.292Z,17.43
2023-01-23T03:29:59.791Z,18.37
2023-01-23T03:32:27.341Z,18.40
2023-01-23T03:34:56.356Z,17.90
2023-01-23T03:37:23.965Z,17.57
2023-01-23T03:40:10.832Z,17.87
2023-01-23T03:42:38.290Z,17.03
2023-01-23T03:45:09.022Z,18.87
2023-01-23T03:47:37.089Z,17.47
2023-01-23T03:50:06.877Z,18.53
2023-01-23T03:52:38.187Z,18.27
2023-01-23T03:55:07.461Z,17.53
2023-01-23T03:57:35.064Z,18.73
2023-01-23T04:00:22.873Z,16.40
2023-01-23T04:03:04.665Z,16.90
2023-01-23T04:05:32.255Z,16.23
2023-01-23T04:08:00.934Z,15.37
2023-01-23T04:10:28.696Z,15.87
2023-01-23T04:13:02.448Z,18.07
2023-01-23T04:15:30.251Z,16.83
2023-01-23T04:18:00.799Z,18.83
2023-01-23T04:20:29.758Z,15.83
2023-01-23T04:22:58.569Z,19.13
2023-01-23T04:25:29.323Z,18.57
2023-01-23T04:27:59.320Z,16.97
2023-01-23T04:30:26.867Z,17.57
2023-01-23T04:32:55.358Z,15.77
2023-01-23T04:35:23.569Z,16.90
2023-01-23T04:37:54.733Z,16.50
2023-01-23T04:40:22.751Z,16.50
2023-01-23T04:42:56.603Z,17.87
2023-01-23T04:45:41.811Z,18.20
2023-01-23T04:48:27.904Z,16.50
2023-01-23T04:50:55.486Z,18.67
2023-01-23T04:53:23.028Z,18.67
2023-01-23T04:55:57.873Z,16.90
2023-01-23T05:08:54.024Z,17.13
2023-01-23T05:11:30.823Z,18.93
2023-01-23T05:13:58.894Z,18.03
2023-01-23T05:16:26.905Z,18.33
2023-01-23T05:19:13.160Z,16.53
2023-01-23T05:21:41.530Z,15.73
2023-01-23T05:24:13.303Z,16.57
2023-01-23T05:26:42.939Z,18.07
2023-01-23T05:29:10.472Z,16.33
2023-01-23T05:31:46.531Z,17.93
2023-01-23T05:34:32.558Z,18.70
2023-01-23T05:37:03.367Z,16.17
2023-01-23T05:39:34.435Z,17.23
2023-01-23T05:42:02.473Z,15.77
2023-01-23T05:44:48.668Z,16.83
2023-01-23T05:47:27.896Z,18.03
2023-01-23T05:49:59.410Z,17.43
2023-01-23T05:52:32.645Z,17.17
2023-01-23T05:55:00.537Z,16.00
2023-01-23T05:57:29.240Z,16.23
2023-01-23T06:00:22.977Z,16.87
2023-01-23T06:03:25.720Z,16.57
2023-01-23T06:06:08.596Z,16.90
2023-01-23T06:08:36.123Z,17.50
2023-01-23T06:11:04.375Z,17.47
2023-01-23T06:13:31.814Z,16.67
2023-01-23T06:15:59.558Z,16.93
2023-01-23T06:18:27.345Z,15.57
2023-01-23T06:20:58.654Z,16.97
2023-01-23T06:23:26.402Z,16.63
2023-01-23T06:25:54.017Z,17.50
2023-01-23T06:28:21.589Z,19.17
2023-01-23T06:30:49.367Z,15.83
2023-01-23T06:33:26.075Z,14.23
2023-01-23T06:35:58.110Z,17.57
2023-01-23T06:38:25.785Z,15.63
2023-01-23T06:40:54.079Z,16.17
2023-01-23T06:43:35.747Z,17.43
2023-01-23T06:46:04.190Z,18.67
2023-01-23T06:48:32.108Z,18.40
2023-01-23T06:51:00.818Z,16.83
2023-01-23T06:53:28.648Z,16.53
2023-01-23T06:56:00.657Z,16.13
2023-01-23T06:58:29.587Z,15.00
2023-01-23T07:00:57.230Z,15.90
2023-01-23T07:03:53.804Z,16.30
2023-01-23T07:06:21.573Z,15.43
2023-01-23T07:08:50.147Z,17.53
2023-01-23T07:11:17.720Z,14.93
2023-01-23T07:13:45.218Z,15.83
2023-01-23T07:16:14.884Z,16.43
2023-01-23T07:18:42.555Z,16.33
2023-01-23T07:21:10.897Z,18.17
2023-01-23T07:23:39.016Z,15.07
2023-01-23T07:26:10.344Z,16.90
2023-01-23T07:28:38.338Z,16.07
2023-01-23T07:31:06.234Z,17.37
2023-01-23T07:33:33.787Z,16.27
2023-01-23T07:36:01.322Z,16.03
2023-01-23T07:38:28.844Z,18.33
2023-01-23T07:40:59.088Z,16.10
2023-01-23T07:43:26.996Z,17.60
2023-01-23T07:45:54.564Z,15.57
2023-01-23T07:48:22.113Z,15.90
2023-01-23T07:50:49.624Z,16.27
2023-01-23T07:53:17.360Z,17.83
2023-01-23T07:55:44.871Z,16.00
2023-01-23T07:58:12.339Z,17.27
2023-01-23T08:00:41.889Z,17.63
2023-01-23T08:03:09.392Z,19.93
2023-01-23T08:05:36.866Z,18.20
2023-01-23T08:08:13.053Z,21.90
2023-01-23T08:10:41.651Z,17.00
2023-01-23T08:13:09.144Z,15.73
2023-01-23T08:15:38.538Z,15.50
2023-01-23T08:18:06.014Z,17.73
2023-01-23T08:20:33.550Z,15.43
2023-01-23T08:23:02.396Z,17.73
2023-01-23T08:25:30.063Z,15.30
2023-01-23T08:27:57.676Z,16.37
2023-01-23T08:30:25.190Z,16.50
2023-01-23T08:32:52.695Z,17.17
2023-01-23T08:35:20.137Z,18.83
2023-01-23T08:37:47.558Z,15.70
2023-01-23T08:40:15.043Z,15.60
2023-01-23T08:42:42.469Z,17.40
2023-01-23T08:45:10.093Z,16.77
2023-01-23T08:47:38.240Z,16.70
2023-01-23T08:50:06.407Z,15.13
2023-01-23T08:52:35.392Z,16.93
2023-01-23T08:55:03.133Z,15.43
2023-01-23T08:57:30.706Z,16.10
2023-01-23T08:59:58.245Z,14.50
2023-01-23T09:02:25.777Z,15.37
2023-01-23T09:04:53.442Z,16.37
2023-01-23T09:07:20.953Z,17.43
2023-01-23T09:09:48.402Z,15.63
2023-01-23T09:12:15.885Z,15.77
2023-01-23T09:14:43.418Z,15.33
2023-01-23T09:17:10.957Z,13.87
2023-01-23T09:19:38.407Z,15.23
2023-01-23T09:22:07.103Z,15.17
2023-01-23T09:24:34.598Z,14.47
2023-01-23T09:27:02.063Z,16.30
2023-01-23T09:29:29.497Z,14.60
2023-01-23T09:31:58.614Z,15.70
2023-01-23T09:34:26.184Z,16.23
2023-01-23T09:36:53.597Z,16.80
2023-01-23T09:39:21.159Z,15.50
2023-01-23T09:41:49.119Z,16.07
2023-01-23T09:44:21.224Z,14.73
2023-01-23T09:46:50.943Z,16.00
2023-01-23T09:49:27.463Z,14.80
2023-01-23T09:51:57.896Z,12.63
2023-01-23T09:54:28.336Z,14.50
2023-01-23T09:56:56.563Z,15.87
2023-01-23T09:59:26.740Z,14.97
2023-01-23T10:01:54.168Z,15.60
2023-01-23T10:04:21.981Z,14.13
2023-01-23T10:06:49.368Z,16.70
2023-01-23T10:09:42.514Z,15.67
2023-01-23T10:12:18.878Z,15.23
2023-01-23T10:14:57.658Z,13.80
2023-01-23T10:17:38.404Z,14.03
2023-01-23T10:20:41.491Z,16.67
2023-01-23T10:23:08.920Z,14.37
2023-01-23T10:25:37.774Z,15.37
2023-01-23T10:28:21.247Z,15.50
2023-01-23T10:30:50.553Z,12.13
2023-01-23T10:33:18.936Z,15.57
2023-01-23T10:35:53.824Z,14.90
2023-01-23T10:38:30.869Z,14.53
2023-01-23T10:41:16.816Z,14.10
2023-01-23T10:43:45.812Z,15.17
2023-01-23T10:46:16.229Z,15.27
2023-01-23T10:48:43.748Z,13.80
2023-01-23T10:51:50.776Z,13.87
2023-01-23T10:54:36.308Z,13.67
2023-01-23T10:57:19.547Z,15.80
2023-01-23T10:59:47.036Z,13.57
2023-01-23T11:02:14.716Z,14.47
2023-01-23T11:04:43.402Z,13.27
2023-01-23T11:07:16.410Z,13.30
2023-01-23T11:09:46.710Z,14.37
2023-01-23T11:12:22.047Z,12.63
2023-01-23T11:14:49.547Z,14.30
2023-01-23T11:17:25.267Z,12.83
2023-01-23T11:19:54.532Z,14.37
2023-01-23T11:22:28.022Z,14.53
2023-01-23T11:24:55.522Z,14.87
2023-01-23T11:27:28.430Z,13.87
2023-01-23T11:30:14.153Z,15.97
2023-01-23T11:33:08.051Z,13.67
2023-01-23T11:35:35.484Z,12.43
2023-01-23T11:38:04.748Z,14.67
2023-01-23T11:40:32.266Z,13.33
2023-01-23T11:42:59.693Z,13.10
2023-01-23T11:45:29.877Z,12.40
2023-01-23T11:48:06.340Z,13.33
2023-01-23T11:50:54.131Z,12.33
2023-01-23T11:53:42.323Z,13.67
2023-01-23T11:56:21.395Z,11.50
2023-01-23T11:58:50.634Z,13.40
2023-01-23T12:01:30.220Z,13.03
2023-01-23T12:04:15.829Z,13.00
2023-01-23T12:06:58.851Z,13.97
2023-01-23T12:09:28.631Z,13.37
2023-01-23T12:12:05.640Z,13.57
2023-01-23T12:14:33.024Z,12.93
2023-01-23T12:17:09.849Z,12.63
2023-01-23T12:19:52.322Z,13.33
2023-01-23T12:22:35.012Z,13.07
2023-01-23T12:25:02.443Z,12.87
2023-01-23T12:27:35.969Z,11.97
2023-01-23T12:30:24.392Z,13.40
2023-01-23T12:33:06.587Z,12.20
2023-01-23T12:35:44.641Z,13.37
2023-01-23T12:38:22.266Z,11.90
2023-01-23T12:40:53.566Z,12.73
2023-01-23T12:43:41.255Z,13.87
2023-01-23T12:46:15.162Z,13.27
2023-01-23T12:48:58.155Z,13.20
2023-01-23T12:51:30.364Z,12.20
2023-01-23T12:53:59.038Z,12.50
2023-01-23T12:56:27.967Z,12.07
2023-01-23T12:59:08.108Z,11.77
2023-01-23T13:01:47.633Z,12.47
2023-01-23T13:04:24.120Z,13.40
2023-01-23T13:07:17.885Z,12.50
2023-01-23T13:10:02.572Z,12.40
2023-01-23T13:12:30.244Z,11.73
2023-01-23T13:15:22.660Z,11.60
2023-01-23T13:18:02.746Z,10.47
2023-01-23T13:20:48.880Z,11.63
2023-01-23T13:23:24.403Z,11.70
2023-01-23T13:26:11.852Z,11.57
2023-01-23T13:28:45.610Z,10.67
2023-01-23T13:31:27.934Z,11.27
2023-01-23T13:34:06.744Z,10.87
2023-01-23T13:36:42.010Z,11.47
2023-01-23T13:39:19.737Z,11.07
2023-01-23T13:41:50.530Z,10.03
2023-01-23T13:44:18.366Z,9.80
2023-01-23T14:21:39.973Z,11.43
2023-01-23T14:24:24.505Z,12.93
2023-01-23T14:26:53.342Z,11.60
2023-01-23T14:29:26.814Z,13.70
2023-01-23T14:31:55.397Z,13.47
2023-01-23T14:34:24.272Z,12.63
2023-01-23T14:36:53.325Z,12.53
2023-01-23T14:39:31.237Z,13.37
2023-01-23T14:42:02.624Z,12.23
2023-01-23T14:44:34.831Z,12.33
2023-01-23T14:47:05.155Z,12.40
2023-01-23T14:49:34.737Z,12.03
2023-01-23T14:52:03.930Z,13.37
2023-01-23T14:54:33.379Z,13.27
2023-01-23T14:57:05.663Z,13.33
2023-01-23T14:59:33.216Z,12.30
2023-01-23T15:02:10.345Z,12.03
2023-01-23T15:04:40.659Z,14.70
2023-01-23T15:07:16.617Z,11.70
2023-01-23T15:09:45.857Z,13.20
2023-01-23T15:12:17.166Z,12.67
2023-01-23T15:14:45.494Z,12.30
2023-01-23T15:17:19.112Z,13.70
2023-01-23T15:19:51.973Z,11.87
2023-01-23T15:22:22.042Z,13.37
2023-01-23T15:24:49.616Z,12.40
2023-01-23T15:27:35.853Z,12.67
2023-01-23T15:30:21.993Z,12.87
2023-01-23T15:32:49.485Z,12.10
2023-01-23T15:35:18.245Z,13.67
2023-01-23T15:37:49.785Z,12.73
2023-01-23T15:40:19.743Z,13.70
2023-01-23T15:43:04.247Z,12.67
2023-01-23T15:45:31.845Z,12.10
2023-01-23T15:47:59.344Z,14.70
2023-01-23T15:50:27.764Z,15.10
2023-01-23T15:52:55.956Z,17.27
2023-01-23T15:55:26.021Z,17.67
2023-01-23T15:57:54.324Z,15.53
2023-01-23T16:00:21.899Z,17.07
2023-01-23T16:02:56.374Z,17.77
2023-01-23T16:05:25.771Z,16.57
2023-01-23T16:07:53.484Z,15.20
2023-01-23T16:10:21.293Z,14.47
2023-01-23T16:12:49.856Z,16.63
2023-01-23T16:15:18.400Z,16.60
2023-01-23T16:17:46.206Z,20.50
2023-01-23T16:20:14.619Z,15.40
2023-01-23T16:22:42.411Z,17.03
2023-01-23T16:25:43.011Z,16.73
2023-01-23T16:28:14.386Z,17.30
2023-01-23T16:30:42.029Z,17.63
2023-01-23T16:33:09.594Z,17.13
2023-01-23T16:35:37.094Z,18.17
2023-01-23T16:38:04.705Z,17.33
2023-01-23T16:40:32.745Z,16.50
2023-01-23T16:43:03.753Z,17.07
2023-01-23T16:45:32.237Z,17.80
2023-01-23T16:48:00.329Z,17.23
2023-01-23T16:50:35.675Z,20.63
2023-01-23T16:53:29.580Z,19.40
2023-01-23T16:55:57.725Z,18.13
2023-01-23T16:58:27.529Z,15.93
2023-01-23T17:01:00.098Z,15.83
2023-01-23T17:03:29.418Z,16.43
2023-01-23T17:05:56.855Z,17.40
2023-01-23T17:08:25.091Z,17.03
2023-01-23T17:10:53.922Z,16.13
2023-01-23T17:13:22.505Z,16.10
2023-01-23T17:15:51.228Z,17.87
2023-01-23T17:18:21.623Z,15.93
2023-01-23T17:20:49.495Z,15.20
2023-01-23T17:23:17.044Z,16.83
2023-01-23T17:25:59.900Z,16.57
2023-01-23T17:28:28.751Z,15.37
2023-01-23T17:30:56.510Z,14.27
2023-01-23T17:33:25.741Z,14.60
2023-01-23T17:35:53.635Z,15.23
2023-01-23T17:38:25.523Z,14.63
2023-01-23T17:40:53.555Z,15.07
2023-01-23T17:43:21.696Z,16.43
2023-01-23T17:45:50.848Z,15.57
2023-01-23T17:48:29.093Z,14.50
2023-01-23T17:50:56.865Z,14.40
2023-01-23T17:53:24.323Z,14.43
2023-01-23T17:55:52.943Z,13.47
2023-01-23T17:58:20.973Z,14.20
2023-01-23T18:00:51.004Z,13.23
2023-01-23T18:03:21.776Z,15.00
2023-01-23T18:05:49.562Z,13.60
2023-01-23T18:08:22.130Z,16.00
2023-01-23T18:10:52.182Z,13.67
2023-01-23T18:13:34.626Z,12.33
2023-01-23T18:16:20.239Z,13.40
2023-01-23T18:18:53.105Z,16.47
2023-01-23T18:21:21.361Z,16.07
2023-01-23T18:23:48.947Z,13.47
2023-01-23T18:26:22.719Z,15.83
2023-01-23T18:28:53.336Z,14.40
2023-01-23T18:31:29.395Z,14.73
2023-01-23T18:34:06.025Z,14.23
2023-01-23T18:36:33.471Z,13.93
2023-01-23T18:39:19.844Z,14.50
2023-01-23T18:42:05.667Z,12.17
2023-01-23T18:44:34.835Z,14.20
2023-01-23T18:47:05.810Z,13.90
2023-01-23T18:49:33.637Z,13.37
2023-01-23T18:52:05.965Z,14.47
2023-01-23T18:54:38.962Z,14.43
2023-01-23T18:57:26.058Z,14.73
2023-01-23T19:00:02.650Z,15.50
2023-01-23T19:02:46.606Z,15.00
2023-01-23T19:05:14.126Z,14.40
2023-01-23T19:07:41.643Z,14.93
2023-01-23T19:10:14.203Z,14.17
2023-01-23T19:13:00.579Z,16.00
2023-01-23T19:15:43.174Z,16.73
2023-01-23T19:18:16.634Z,13.57
2023-01-23T19:20:50.479Z,14.40
2023-01-23T19:23:20.967Z,14.70
2023-01-23T19:25:48.548Z,14.03
2023-01-23T19:28:16.258Z,15.00
2023-01-23T19:30:43.922Z,14.23
2023-01-23T19:33:21.071Z,13.00
2023-01-23T19:35:51.378Z,15.20
2023-01-23T19:38:18.916Z,14.83
2023-01-23T19:40:46.461Z,13.83
2023-01-23T19:43:15.765Z,15.20
2023-01-23T19:45:46.532Z,12.50
2023-01-23T19:48:14.599Z,13.57
2023-01-23T19:50:42.108Z,13.53
2023-01-23T19:53:11.487Z,12.77
2023-01-23T19:55:39.008Z,14.07
2023-01-23T19:58:06.739Z,13.17
2023-01-23T20:00:36.052Z,13.10
2023-01-23T20:03:05.029Z,14.13
2023-01-23T20:05:32.664Z,12.97
2023-01-23T20:08:09.135Z,13.13
2023-01-23T20:10:37.372Z,12.23
2023-01-23T20:13:04.877Z,13.30
2023-01-23T20:15:33.834Z,14.03
2023-01-23T20:18:01.269Z,12.47
2023-01-23T20:20:28.721Z,12.70
2023-01-23T20:22:56.187Z,13.70
2023-01-23T20:25:23.953Z,14.93
2023-01-23T20:27:51.544Z,14.43
2023-01-23T20:30:20.376Z,13.87
2023-01-23T20:32:49.139Z,13.17
2023-01-23T20:35:16.521Z,14.10
2023-01-23T20:37:44.054Z,13.47
2023-01-23T20:40:11.911Z,12.50
2023-01-23T20:42:39.590Z,12.70
2023-01-23T20:45:07.899Z,13.10
2023-01-23T20:47:38.769Z,14.73
2023-01-23T20:50:06.521Z,12.67
2023-01-23T20:52:52.521Z,13.20
2023-01-23T20:55:20.622Z,13.37
2023-01-23T20:58:10.148Z,15.10
2023-01-23T21:00:37.894Z,13.13
2023-01-23T21:03:05.450Z,14.23
2023-01-23T21:05:32.913Z,13.50
2023-01-23T21:08:00.360Z,12.47
2023-01-23T21:10:27.952Z,13.10
2023-01-23T21:12:55.551Z,14.80
2023-01-23T21:15:23.330Z,13.77
2023-01-23T21:17:51.045Z,13.00
2023-01-23T21:20:18.464Z,12.97
2023-01-23T21:22:45.896Z,13.23
2023-01-23T21:25:13.376Z,14.50
2023-01-23T21:27:40.873Z,14.33
2023-01-23T21:30:08.661Z,13.83
2023-01-23T21:32:36.106Z,13.73
2023-01-23T21:35:03.579Z,13.63
2023-01-23T21:37:32.078Z,15.13
2023-01-23T21:39:59.652Z,14.10
2023-01-23T21:42:27.075Z,12.83
2023-01-23T21:44:57.164Z,14.70
2023-01-23T21:47:24.652Z,14.07
2023-01-23T21:49:52.084Z,16.40
2023-01-23T21:52:19.600Z,13.70
2023-01-23T21:54:47.101Z,14.27
2023-01-23T21:57:14.501Z,14.83
2023-01-23T22:00:01.901Z,15.30
2023-01-23T22:02:39.434Z,13.30
2023-01-23T22:05:07.256Z,14.40
2023-01-23T22:07:34.709Z,15.63
2023-01-23T22:10:02.189Z,14.63
2023-01-23T22:12:29.573Z,15.83
2023-01-23T22:14:57.021Z,13.43
2023-01-23T22:17:24.567Z,12.90
2023-01-23T22:19:51.989Z,14.90
2023-01-23T22:22:20.279Z,15.40
2023-01-23T22:24:47.693Z,15.70
2023-01-23T22:27:15.136Z,15.10
2023-01-23T22:29:43.573Z,12.23
2023-01-23T22:32:11.235Z,14.13
2023-01-23T22:34:38.722Z,14.63
2023-01-23T22:37:06.310Z,14.40
2023-01-23T22:39:33.828Z,14.40
2023-01-23T22:42:02.854Z,17.10
2023-01-23T22:44:30.978Z,14.73
2023-01-23T22:46:58.417Z,14.50
2023-01-23T22:49:25.981Z,16.17
2023-01-23T22:51:53.455Z,15.00
2023-01-23T22:54:20.928Z,14.97
2023-01-23T22:56:48.406Z,15.67
2023-01-23T22:59:15.861Z,16.60
2023-01-23T23:01:43.260Z,16.20
2023-01-23T23:04:10.728Z,16.33
2023-01-23T23:06:38.127Z,15.17
2023-01-23T23:09:05.604Z,17.33
2023-01-23T23:11:33.322Z,16.90
2023-01-23T23:14:00.781Z,15.80
2023-01-23T23:16:30.933Z,15.53
2023-01-23T23:19:00.760Z,17.30
2023-01-23T23:21:30.480Z,14.77
2023-01-23T23:23:58.998Z,15.23
2023-01-23T23:26:28.233Z,15.97
2023-01-23T23:28:56.157Z,16.67
2023-01-23T23:31:23.920Z,14.60
2023-01-23T23:33:51.630Z,15.30
2023-01-23T23:36:19.214Z,15.17
2023-01-23T23:38:46.686Z,14.60
2023-01-23T23:41:15.484Z,14.90
2023-01-23T23:43:43.449Z,14.33
2023-01-23T23:46:11.447Z,14.97
2023-01-23T23:48:39.135Z,13.97
2023-01-23T23:51:08.847Z,13.67
2023-01-23T23:53:36.953Z,14.87
2023-01-23T23:56:04.620Z,16.13
2023-01-23T23:58:32.349Z,14.07
